Time;durP1;ratioP1;P1;durP2;ratioP2;P2;SDS_P1;SDS_P2;PMS_P1;PMS_P2;Temp;Humidity;BMP_temperature;BMP_pressure;BME280_temperature;BME280_humidity;BME280_pressure;Samples;Min_cycle;Max_cycle;Signal;HPM_P1;HPM_P2
2021/06/18 00:02:12;;;;;;;11.25;5.03;;;25.90;65.30;;;24.41;65.15;100250.44;5102415;28;20043;-88
2021/06/18 00:04:48;;;;;;;10.82;5.03;;;25.80;65.40;;;24.40;65.16;100244.00;5102569;28;20393;-86
2021/06/18 00:07:24;;;;;;;9.40;4.72;;;25.80;65.30;;;24.38;65.07;100248.19;5102501;28;20563;-87
2021/06/18 00:10:00;;;;;;;9.95;4.97;;;25.80;65.60;;;24.38;65.07;100245.41;5102407;28;20062;-89
2021/06/18 00:12:37;;;;;;;8.60;5.38;;;25.80;65.50;;;24.36;64.99;100245.69;5102628;28;20055;-89
2021/06/18 00:18:14;;;;;;;10.82;5.10;;;25.70;65.80;;;24.33;65.08;100260.19;5100543;28;20058;-88
2021/06/18 00:20:47;;;;;;;11.27;5.60;;;25.70;65.90;;;24.32;64.91;100258.50;5100088;28;20055;-87
2021/06/18 00:23:22;;;;;;;12.13;5.60;;;25.70;65.80;;;24.31;64.98;100259.63;5100901;28;20048;-88
2021/06/18 00:28:49;;;;;;;10.10;5.57;;;25.70;66.10;;;24.28;65.10;100262.97;5102054;28;20059;-87
2021/06/18 00:31:25;;;;;;;9.27;4.93;;;25.60;66.20;;;24.27;65.42;100263.25;5101998;28;20040;-88
2021/06/18 00:33:59;;;;;;;12.60;4.95;;;25.60;66.20;;;24.25;65.50;100257.97;5100658;28;20059;-88
2021/06/18 00:36:38;;;;;;;10.93;6.10;;;25.60;66.50;;;24.24;65.42;100261.03;5088620;28;20044;-88
2021/06/18 00:39:22;;;;;;;10.05;5.65;;;25.60;66.70;;;24.22;65.51;100254.91;5088611;28;20123;-87
2021/06/18 00:41:55;;;;;;;8.88;5.68;;;25.50;66.70;;;24.19;65.89;100251.59;5088720;28;20626;-88
2021/06/18 00:44:35;;;;;;;10.40;5.35;;;25.50;67.10;;;24.18;65.68;100261.06;5088422;28;20050;-88
2021/06/18 00:47:17;;;;;;;10.17;5.53;;;25.50;66.90;;;24.15;66.09;100253.25;5088342;28;20508;-88
2021/06/18 00:49:54;;;;;;;9.57;5.45;;;25.40;67.30;;;24.13;66.34;100266.63;5087268;28;20056;-88
2021/06/18 00:52:29;;;;;;;9.32;4.95;;;25.40;67.40;;;24.10;65.99;100256.06;5088590;28;20051;-88
2021/06/18 00:55:09;;;;;;;10.50;5.47;;;25.40;67.70;;;24.10;66.12;100267.16;5088654;28;20063;-88
2021/06/18 00:57:45;;;;;;;13.00;5.57;;;25.30;68.10;;;24.09;66.12;100262.75;5088080;28;20462;-87
2021/06/18 01:00:33;;;;;;;16.00;5.55;;;25.30;68.20;;;24.08;66.42;100257.44;5103468;28;20048;-87
2021/06/18 01:03:06;;;;;;;10.77;5.68;;;25.30;68.00;;;24.07;66.10;100256.63;5086394;28;20134;-87
2021/06/18 01:05:43;;;;;;;8.32;5.45;;;25.20;68.10;;;24.04;66.17;100261.91;5087813;28;20051;-88
2021/06/18 01:08:29;;;;;;;10.05;5.50;;;25.30;68.00;;;24.06;66.21;100254.13;5087794;28;20390;-88
2021/06/18 01:11:22;;;;;;;10.90;5.43;;;25.20;68.20;;;24.03;66.07;100255.53;5086522;28;20363;-86
2021/06/18 01:14:01;;;;;;;9.85;5.63;;;25.20;68.40;;;24.02;66.06;100253.03;5087694;28;20039;-86
2021/06/18 01:16:45;;;;;;;14.38;5.53;;;25.20;68.30;;;24.01;66.38;100241.09;5087671;28;20044;-88
2021/06/18 01:19:26;;;;;;;11.02;5.88;;;25.20;68.30;;;23.99;66.13;100244.13;5087696;28;20044;-88
2021/06/18 01:22:06;;;;;;;10.02;5.88;;;25.20;68.50;;;23.95;66.37;100236.63;5088352;28;20072;-88
2021/06/18 01:24:54;;;;;;;9.80;5.72;;;25.20;68.30;;;23.93;66.48;100236.94;5087707;28;20048;-86
2021/06/18 01:30:54;;;;;;;9.77;5.72;;;25.10;68.80;;;23.92;66.72;100232.47;5059917;28;20060;-87
2021/06/18 01:33:33;;;;;;;10.63;5.78;;;25.10;68.70;;;23.91;66.12;100221.63;5087789;28;20606;-85
2021/06/18 01:36:11;;;;;;;10.60;5.75;;;25.10;68.70;;;23.88;66.79;100225.81;5088090;28;20055;-88
2021/06/18 01:38:52;;;;;;;12.57;6.22;;;25.10;69.10;;;23.87;66.79;100206.63;5087361;28;20399;-88
2021/06/18 01:44:21;;;;;;;11.27;6.03;;;25.00;69.10;;;23.86;66.67;100196.63;5086607;28;20455;-88
2021/06/18 01:47:17;;;;;;;13.38;5.63;;;25.00;69.00;;;23.85;66.50;100197.75;5086090;28;20454;-88
2021/06/18 01:49:54;;;;;;;13.07;6.18;;;25.00;69.10;;;23.84;66.83;100196.06;5085640;28;20048;-85
2021/06/18 01:55:27;;;;;;;11.88;6.32;;;25.00;68.90;;;23.81;66.73;100200.25;5102160;28;20048;-88
2021/06/18 01:58:04;;;;;;;10.70;5.70;;;25.00;69.20;;;23.80;66.60;100191.09;5086908;28;20050;-88
2021/06/18 02:00:48;;;;;;;13.65;6.40;;;25.00;69.10;;;23.79;66.65;100194.13;5087034;28;20048;-88
2021/06/18 02:03:33;;;;;;;12.50;5.70;;;24.90;69.10;;;23.77;66.93;100201.88;5087424;28;20040;-88
2021/06/18 02:06:14;;;;;;;10.77;6.20;;;25.00;69.30;;;23.75;67.00;100209.69;5087012;28;20044;-88
2021/06/18 02:08:53;;;;;;;12.88;5.82;;;24.90;69.60;;;23.72;67.03;100211.09;5086781;28;20062;-87
2021/06/18 02:11:35;;;;;;;11.77;6.30;;;24.90;69.80;;;23.72;67.39;100211.09;5087246;28;20496;-88
2021/06/18 02:14:17;;;;;;;11.30;6.65;;;24.90;70.00;;;23.72;67.51;100199.13;5086369;28;20044;-89
2021/06/18 02:17:05;;;;;;;10.07;5.85;;;24.80;70.00;;;23.70;67.69;100193.00;5086331;28;20119;-88
2021/06/18 02:19:52;;;;;;;11.60;6.32;;;24.80;70.00;;;23.68;67.29;100184.94;5101793;28;20048;-88
2021/06/18 02:22:32;;;;;;;9.32;6.45;;;24.80;70.20;;;23.67;67.26;100190.81;5086086;28;20044;-88
2021/06/18 02:27:57;;;;;;;13.38;6.70;;;24.70;70.20;;;23.64;67.56;100188.56;5084659;28;20373;-85
2021/06/18 02:33:25;;;;;;;12.33;6.73;;;24.70;70.50;;;23.60;67.78;100186.34;5085581;28;20078;-86
2021/06/18 02:36:06;;;;;;;12.30;6.68;;;24.70;70.60;;;23.59;68.22;100189.44;5086414;28;20277;-88
2021/06/18 02:38:44;;;;;;;14.30;6.50;;;24.70;70.70;;;23.58;68.11;100193.31;5086313;28;20043;-88
2021/06/18 02:41:21;;;;;;;18.05;7.07;;;24.60;70.80;;;23.56;68.07;100188.03;5086394;28;20052;-88
2021/06/18 02:44:02;;;;;;;11.10;6.68;;;24.60;70.90;;;23.54;68.30;100187.47;5086033;28;20048;-88
2021/06/18 02:46:48;;;;;;;12.32;7.03;;;24.60;71.30;;;23.52;68.56;100188.88;5084491;28;20052;-88
2021/06/18 02:49:31;;;;;;;13.02;6.70;;;24.60;71.50;;;23.52;68.95;100180.53;5084455;28;20397;-87
2021/06/18 02:52:07;;;;;;;11.20;7.05;;;24.60;71.90;;;23.48;68.98;100185.81;5085783;28;20050;-88
2021/06/18 02:54:55;;;;;;;11.40;6.45;;;24.50;72.10;;;23.45;68.97;100183.59;5085811;28;20047;-87
2021/06/18 02:57:38;;;;;;;10.98;6.72;;;24.50;72.30;;;23.46;69.21;100176.09;5085184;28;20040;-88
2021/06/18 03:00:20;;;;;;;14.07;7.10;;;24.50;72.50;;;23.43;69.36;100181.06;5086111;28;20488;-88
2021/06/18 03:03:00;;;;;;;10.98;7.07;;;24.50;72.70;;;23.42;69.13;100178.59;5101042;28;20515;-88
2021/06/18 03:05:37;;;;;;;10.93;7.00;;;24.40;72.60;;;23.39;69.77;100177.19;5085416;28;20401;-88
2021/06/18 03:08:16;;;;;;;11.25;7.65;;;24.40;72.70;;;23.39;69.37;100181.94;5085878;28;20051;-87
2021/06/18 03:10:58;;;;;;;13.32;7.75;;;24.40;72.50;;;23.39;69.54;100173.59;5085704;28;20062;-88
2021/06/18 03:13:43;;;;;;;12.85;7.60;;;24.40;72.80;;;23.37;69.61;100176.66;5086148;28;20509;-88
2021/06/18 03:16:21;;;;;;;12.32;7.07;;;24.40;72.80;;;23.37;69.45;100178.59;5085700;28;20054;-87
2021/06/18 03:19:03;;;;;;;12.30;8.00;;;24.40;72.80;;;23.36;69.44;100185.25;5086218;28;20043;-88
2021/06/18 03:21:40;;;;;;;12.45;7.45;;;24.40;72.80;;;23.36;69.43;100185.25;5085769;28;20040;-86
2021/06/18 03:24:37;;;;;;;17.17;7.95;;;24.40;72.70;;;23.36;69.76;100185.25;5085337;28;20138;-88
2021/06/18 03:27:14;;;;;;;12.93;7.80;;;24.40;72.60;;;23.33;69.77;100189.44;5085096;28;20105;-88
2021/06/18 03:29:53;;;;;;;14.55;7.80;;;24.50;73.00;;;23.33;69.98;100189.44;5085511;28;20040;-87
2021/06/18 03:32:34;;;;;;;13.52;7.63;;;24.50;73.10;;;23.31;70.92;100188.88;5085825;28;20522;-88
2021/06/18 03:35:10;;;;;;;11.13;7.95;;;24.50;73.40;;;23.31;70.71;100194.44;5085615;28;20496;-87
2021/06/18 03:37:47;;;;;;;12.13;7.40;;;24.50;73.40;;;23.31;70.69;100190.81;5100790;28;20579;-88
2021/06/18 03:40:36;;;;;;;11.65;7.75;;;24.40;73.00;;;23.30;70.78;100197.47;5081391;22;20048;-82
2021/06/18 03:43:10;;;;;;;14.70;7.63;;;24.40;73.60;;;23.30;70.51;100187.19;5028098;28;20072;-82
2021/06/18 03:45:49;;;;;;;12.57;7.72;;;24.40;73.20;;;23.31;70.55;100197.19;5043068;28;20049;-82
2021/06/18 03:48:25;;;;;;;14.80;7.57;;;24.50;73.20;;;23.31;70.72;100193.59;5047810;28;20459;-82
2021/06/18 03:51:04;;;;;;;11.25;6.93;;;24.50;73.40;;;23.30;71.39;100197.47;5048098;28;20049;-82
2021/06/18 03:53:40;;;;;;;13.52;7.80;;;24.50;73.70;;;23.29;71.72;100199.44;5048217;28;20068;-82
2021/06/18 03:56:19;;;;;;;13.23;7.80;;;24.50;73.90;;;23.28;71.81;100196.91;5038149;28;20068;-82
2021/06/18 03:58:56;;;;;;;10.57;7.35;;;24.50;74.00;;;23.28;71.98;100200.53;5028428;28;20502;-82
2021/06/18 04:01:44;;;;;;;12.60;8.07;;;24.50;73.90;;;23.30;71.66;100198.31;5027986;28;20050;-83
2021/06/18 04:04:22;;;;;;;15.20;8.27;;;24.60;73.50;;;23.31;71.67;100199.97;5012925;28;20429;-82
2021/06/18 04:07:02;;;;;;;12.25;7.18;;;24.60;73.30;;;23.31;72.41;100194.44;5047834;28;20045;-82
2021/06/18 04:09:39;;;;;;;14.43;7.82;;;24.60;73.80;;;23.31;72.46;100185.28;5048486;28;20142;-83
2021/06/18 04:12:30;;;;;;;12.15;7.88;;;24.70;74.10;;;23.31;72.23;100194.44;5051760;28;20118;-81
2021/06/18 04:15:17;;;;;;;11.33;7.60;;;24.70;74.50;;;23.33;72.13;100192.19;5024395;28;20050;-83
2021/06/18 04:17:57;;;;;;;15.10;8.38;;;24.70;74.10;;;23.35;72.93;100195.53;5013423;28;20329;-82
2021/06/18 04:20:42;;;;;;;12.10;7.65;;;24.80;74.00;;;23.35;72.94;100178.88;5031616;28;20498;-83
2021/06/18 04:23:24;;;;;;;18.50;8.73;;;24.80;73.70;;;23.37;73.78;100190.53;5031487;28;20045;-82
2021/06/18 04:25:57;;;;;;;14.50;8.45;;;24.80;74.20;;;23.39;72.98;100184.69;5047698;28;20048;-83
2021/06/18 04:28:38;;;;;;;15.65;9.02;;;25.00;73.80;;;23.41;73.40;100186.06;5051098;28;20052;-82
2021/06/18 04:31:23;;;;;;;12.10;8.48;;;25.00;74.10;;;23.43;73.30;100185.81;5051415;28;20481;-83
2021/06/18 04:33:58;;;;;;;15.68;9.55;;;25.00;73.60;;;23.48;72.65;100193.31;5051003;28;20049;-83
2021/06/18 04:36:34;;;;;;;16.58;8.80;;;25.10;72.90;;;23.51;73.79;100189.97;5011666;28;20049;-80
2021/06/18 04:39:08;;;;;;;13.13;8.63;;;25.20;72.50;;;23.53;73.17;100190.53;5011107;28;20054;-81
2021/06/18 04:41:46;;;;;;;14.23;9.00;;;25.40;72.40;;;23.56;73.45;100199.13;5022573;28;20098;-80
2021/06/18 04:44:30;;;;;;;15.10;8.80;;;25.50;72.10;;;23.60;73.71;100196.63;5015324;28;20474;-80
2021/06/18 04:47:05;;;;;;;17.67;10.23;;;25.60;72.00;;;23.65;73.50;100204.97;5051005;28;20041;-81
2021/06/18 04:49:44;;;;;;;21.67;14.27;;;25.70;71.20;;;23.68;73.96;100193.28;5048705;28;20045;-80
2021/06/18 04:52:25;;;;;;;13.02;9.68;;;25.80;70.80;;;23.72;74.40;100194.41;5029031;28;20065;-80
2021/06/18 04:55:03;;;;;;;15.18;10.15;;;26.00;71.10;;;23.76;74.25;100192.72;5026456;28;20052;-80
2021/06/18 04:57:40;;;;;;;25.48;11.32;;;26.00;71.10;;;23.80;74.39;100191.09;5032443;28;20057;-80
2021/06/18 05:00:23;;;;;;;20.48;10.32;;;26.10;70.80;;;23.86;74.27;100188.31;5050435;28;20069;-80
2021/06/18 05:03:00;;;;;;;17.05;9.85;;;26.30;70.60;;;23.90;74.08;100186.63;5034195;28;20151;-80
2021/06/18 05:05:39;;;;;;;18.77;10.77;;;26.30;70.20;;;23.94;74.16;100191.31;5041298;28;20057;-80
2021/06/18 05:08:11;;;;;;;20.55;10.32;;;26.40;70.00;;;24.00;73.80;100187.41;5050279;28;20671;-78
2021/06/18 05:10:50;;;;;;;19.30;10.93;;;26.50;69.00;;;24.04;74.78;100184.91;5050564;28;20041;-78
2021/06/18 05:13:28;;;;;;;17.13;10.05;;;26.60;69.50;;;24.10;74.93;100192.09;5050126;28;20098;-78
2021/06/18 05:16:09;;;;;;;17.73;10.73;;;26.70;69.30;;;24.16;74.21;100190.13;5027667;28;20518;-81
2021/06/18 05:18:47;;;;;;;19.17;11.53;;;26.80;68.70;;;24.20;73.97;100194.88;5000436;28;20050;-77
2021/06/18 05:21:23;;;;;;;17.33;10.80;;;26.90;68.20;;;24.22;74.49;100185.38;5030147;28;20053;-77
2021/06/18 05:23:59;;;;;;;18.40;10.10;;;27.00;69.00;;;24.29;73.63;100185.94;5030413;28;20187;-78
2021/06/18 05:26:39;;;;;;;17.58;11.30;;;27.10;68.30;;;24.32;73.34;100185.38;5015091;28;20434;-78
2021/06/18 05:29:15;;;;;;;18.48;11.10;;;27.10;67.80;;;24.37;73.20;100185.34;5010317;28;20050;-81
2021/06/18 05:31:52;;;;;;;17.08;11.40;;;27.10;67.60;;;24.41;72.33;100186.44;5009794;28;20061;-81
2021/06/18 05:34:31;;;;;;;16.80;11.35;;;27.10;67.10;;;24.43;73.03;100181.44;5030311;28;20041;-82
2021/06/18 05:37:10;;;;;;;17.08;10.77;;;27.10;67.80;;;24.48;72.62;100186.13;5028974;28;20129;-81
2021/06/18 05:39:48;;;;;;;24.88;10.77;;;27.10;67.30;;;24.51;72.11;100200.31;5012096;28;20053;-81
2021/06/18 05:42:24;;;;;;;15.63;11.60;;;27.20;67.20;;;24.55;71.64;100189.47;5029915;28;20410;-81
2021/06/18 05:45:06;;;;;;;21.08;12.23;;;27.30;66.10;;;24.58;71.44;100189.72;5014856;28;20502;-81
2021/06/18 05:47:40;;;;;;;21.55;12.43;;;27.30;66.40;;;24.61;71.25;100196.66;5009793;28;20069;-81
2021/06/18 05:50:16;;;;;;;16.83;11.77;;;27.30;66.20;;;24.65;71.34;100194.13;4992441;28;20088;-81
2021/06/18 05:52:55;;;;;;;17.95;12.18;;;27.30;66.50;;;24.72;71.14;100191.88;5009919;28;20046;-81
2021/06/18 06:01:05;;;;;;;21.02;11.50;;;31.40;55.40;;;25.28;69.99;100197.06;5026427;28;20096;-82
2021/06/18 06:03:45;;;;;;;21.70;12.75;;;33.20;50.10;;;25.54;69.61;100196.88;5025649;28;20046;-82
2021/06/18 06:06:22;;;;;;;20.58;12.13;;;34.50;46.70;;;25.82;69.08;100205.53;5010162;28;20765;-82
2021/06/18 06:09:00;;;;;;;17.83;11.48;;;35.40;43.90;;;26.05;67.84;100204.75;5009455;28;20384;-82
2021/06/18 06:11:36;;;;;;;17.35;12.23;;;36.20;40.90;;;26.28;66.66;100208.66;5009715;28;20049;-82
2021/06/18 06:14:16;;;;;;;19.63;13.32;;;36.80;39.50;;;26.48;65.31;100213.19;5018872;28;20120;-82
2021/06/18 06:19:59;;;;;;;15.93;11.33;;;37.60;37.60;;;26.93;66.24;100232.41;5029046;28;20049;-82
2021/06/18 06:22:35;;;;;;;18.83;11.73;;;38.00;36.90;;;27.06;65.66;100223.28;5009615;28;20284;-81
2021/06/18 06:25:08;;;;;;;15.55;11.98;;;38.30;36.20;;;27.21;63.32;100225.03;5024616;28;20565;-82
2021/06/18 06:27:46;;;;;;;17.05;11.18;;;38.40;34.70;;;27.31;64.42;100232.44;5028908;28;20080;-82
2021/06/18 06:30:19;;;;;;;20.15;10.75;;;38.70;34.30;;;27.40;65.15;100235.38;5027961;28;20053;-82
2021/06/18 06:35:49;;;;;;;19.10;11.45;;;38.90;33.60;;;27.35;64.08;100232.66;5010479;28;20054;-81
2021/06/18 06:38:28;;;;;;;21.60;11.52;;;38.70;33.70;;;27.33;64.42;100229.34;5009996;28;20045;-82
2021/06/18 06:41:01;;;;;;;16.95;11.20;;;37.00;37.20;;;27.26;63.73;100233.38;5008897;28;20505;-82
2021/06/18 06:43:40;;;;;;;19.27;11.40;;;35.50;41.00;;;27.19;65.67;100234.81;5010985;28;20108;-82
2021/06/18 06:46:22;;;;;;;21.80;10.48;;;34.30;45.20;;;27.15;66.04;100230.97;5017369;28;20053;-82
2021/06/18 06:49:00;;;;;;;21.38;10.73;;;33.40;47.30;;;27.08;67.04;100237.78;5010315;28;20049;-82
2021/06/18 06:57:21;;;;;;;18.45;11.90;;;31.80;51.80;;;26.88;65.61;100247.31;5012565;28;20591;-83
2021/06/18 07:00:02;;;;;;;15.68;9.98;;;31.40;53.00;;;26.88;66.75;100250.09;5009940;28;20066;-83
2021/06/18 07:02:44;;;;;;;17.42;10.32;;;31.20;54.60;;;26.87;67.35;100259.59;5008901;28;20053;-83
2021/06/18 07:05:23;;;;;;;17.52;11.20;;;31.00;55.70;;;26.84;67.36;100249.00;5010091;28;20039;-83
2021/06/18 07:07:57;;;;;;;23.92;11.27;;;30.90;56.00;;;26.82;68.47;100251.28;4990737;28;20050;-83
2021/06/18 07:13:23;;;;;;;18.63;10.80;;;30.60;58.10;;;26.78;68.25;100250.22;5018722;28;20506;-82
2021/06/18 07:15:54;;;;;;;19.15;10.00;;;30.50;58.00;;;26.76;68.57;100252.47;5020404;28;20099;-83
2021/06/18 07:18:35;;;;;;;25.05;11.52;;;30.40;58.80;;;26.74;68.63;100259.50;5006334;28;20070;-82
2021/06/18 07:21:10;;;;;;;17.48;12.10;;;30.30;59.20;;;26.71;69.22;100258.13;5008725;28;20092;-82
2021/06/18 07:23:48;;;;;;;16.58;11.27;;;30.20;59.30;;;26.70;68.78;100254.50;5009959;28;20529;-82
2021/06/18 07:26:21;;;;;;;15.23;9.63;;;30.10;59.50;;;26.71;69.86;100264.56;5005795;28;21176;-82
2021/06/18 07:29:01;;;;;;;18.58;9.32;;;30.10;60.10;;;26.71;71.52;100260.91;5015207;28;20470;-82
2021/06/18 07:31:40;;;;;;;19.98;11.32;;;30.00;61.50;;;26.68;70.45;100259.56;5008717;28;20265;-82
2021/06/18 07:34:12;;;;;;;19.95;12.32;;;30.00;61.00;;;26.67;69.18;100260.72;4992264;28;20046;-83
2021/06/18 07:36:48;;;;;;;19.88;11.27;;;29.90;60.20;;;26.64;69.20;100263.25;5008990;28;20053;-83
2021/06/18 07:39:28;;;;;;;23.60;11.10;;;29.90;60.40;;;26.61;69.81;100255.47;5009383;28;20054;-83
2021/06/18 07:42:04;;;;;;;18.87;11.50;;;29.80;60.60;;;26.60;68.45;100253.78;5008706;28;20100;-82
2021/06/18 07:44:43;;;;;;;19.75;10.55;;;29.80;59.70;;;26.58;68.68;100247.66;5013967;28;20042;-82
2021/06/18 07:47:19;;;;;;;21.52;9.60;;;29.70;60.20;;;26.49;67.95;100245.53;5027313;28;20509;-81
2021/06/18 07:49:58;;;;;;;14.77;8.90;;;29.60;60.30;;;26.44;67.96;100245.59;5019827;28;20061;-81
2021/06/18 07:52:36;;;;;;;17.55;11.43;;;29.60;60.60;;;26.43;69.47;100248.69;5013045;28;20046;-81
2021/06/18 07:55:19;;;;;;;16.67;10.40;;;29.50;61.20;;;26.44;70.44;100240.00;5020935;28;20037;-81
2021/06/18 08:00:53;;;;;;;19.65;11.95;;;29.70;60.80;;;26.48;68.73;100251.41;5020992;28;20671;-82
2021/06/18 08:03:31;;;;;;;20.33;12.57;;;29.70;60.50;;;26.50;70.77;100247.22;5020823;28;20111;-81
2021/06/18 08:06:04;;;;;;;18.80;10.95;;;29.70;61.40;;;26.47;69.05;100247.78;5021816;28;20042;-81
2021/06/18 08:08:42;;;;;;;14.75;9.55;;;29.70;60.70;;;26.44;69.26;100250.34;5019832;28;20091;-81
2021/06/18 08:11:19;;;;;;;13.30;9.93;;;29.70;60.90;;;26.48;70.90;100240.25;5022183;28;20049;-81
2021/06/18 08:16:47;;;;;;;17.63;11.65;;;29.70;61.20;;;26.53;68.27;100243.81;5020263;28;20129;-81
2021/06/18 08:19:29;;;;;;;18.85;9.55;;;29.60;60.50;;;26.47;68.35;100245.00;5021413;28;20049;-81
2021/06/18 08:22:08;;;;;;;13.80;9.75;;;29.60;61.30;;;26.47;68.40;100233.84;5021684;28;20045;-81
2021/06/18 08:24:46;;;;;;;15.98;10.00;;;29.50;61.10;;;26.51;68.27;100236.88;5021456;28;20147;-81
2021/06/18 08:27:38;;;;;;;17.70;10.02;;;29.50;61.60;;;26.57;69.33;100244.03;5017664;28;20041;-81
2021/06/18 08:30:13;;;;;;;21.35;10.27;;;29.50;62.70;;;26.62;65.52;100245.97;5022131;28;20076;-80
2021/06/18 08:32:49;;;;;;;15.30;8.77;;;29.50;59.90;;;26.55;64.31;100240.72;5022524;28;20667;-81
2021/06/18 08:41:14;;;;;;;;;;;29.30;60.00;;;26.37;66.24;100250.72;5102050;28;20048;-79
2021/06/18 08:43:54;;;;;;;17.67;8.57;;;29.20;61.50;;;26.31;66.67;100252.72;5100328;28;20375;-80
2021/06/18 08:46:36;;;;;;;13.60;8.50;;;29.20;61.10;;;26.33;68.73;100260.78;5091299;28;20043;-79
2021/06/18 08:49:20;;;;;;;18.02;9.75;;;29.20;62.90;;;26.41;68.87;100248.16;5097364;28;20082;-80
2021/06/18 08:51:59;;;;;;;18.20;10.32;;;29.30;62.00;;;26.37;67.62;100242.34;5096892;28;20523;-79
2021/06/18 08:54:46;;;;;;;14.77;10.68;;;29.30;61.50;;;26.37;69.71;100247.91;5091327;28;20040;-80
2021/06/18 08:57:24;;;;;;;14.05;8.73;;;29.30;63.10;;;26.31;68.75;100243.50;5097362;28;20040;-79
2021/06/18 09:00:03;;;;;;;16.50;9.90;;;29.20;62.50;;;26.32;71.68;100237.63;5092570;28;20511;-80
2021/06/18 09:02:41;;;;;;;10.88;8.48;;;29.20;64.50;;;26.29;70.12;100231.81;5094373;28;20097;-80
2021/06/18 09:05:32;;;;;;;16.23;9.25;;;29.20;63.50;;;26.26;71.86;100222.09;5086401;28;20055;-80
2021/06/18 09:08:11;;;;;;;18.10;10.20;;;29.20;64.30;;;26.23;71.85;100219.06;5091213;28;20036;-79
2021/06/18 09:10:51;;;;;;;18.65;9.43;;;29.00;65.10;;;26.21;73.21;100218.53;5095586;28;20043;-80
2021/06/18 09:13:33;;;;;;;12.65;9.55;;;29.00;65.90;;;26.21;74.78;100221.31;5104205;28;20044;-80
2021/06/18 09:16:09;;;;;;;12.65;9.80;;;28.90;67.10;;;26.16;72.00;100229.72;5105401;28;20100;-79
2021/06/18 09:18:51;;;;;;;18.38;9.45;;;28.80;65.40;;;26.14;72.66;100224.44;5093861;28;20048;-79
2021/06/18 09:21:34;;;;;;;15.48;10.63;;;28.80;66.10;;;26.18;73.15;100213.53;5093743;28;20051;-80
2021/06/18 09:27:08;;;;;;;17.25;10.20;;;29.10;66.70;;;26.32;70.62;100220.06;5097934;28;20050;-80
2021/06/18 09:32:37;;;;;;;23.10;10.50;;;29.30;60.70;;;26.38;71.01;100212.47;5098482;28;20511;-80
2021/06/18 09:35:13;;;;;;;15.93;10.40;;;29.40;63.50;;;26.51;71.83;100212.56;5084950;28;20097;-80
2021/06/18 09:44:12;;;;;;;20.65;11.13;;;29.60;59.40;;;26.55;67.81;100200.81;5057384;28;20048;-81
2021/06/18 09:47:07;;;;;;;20.85;11.52;;;29.60;60.70;;;26.56;67.86;100211.69;5056509;28;20037;-81
2021/06/18 09:49:47;;;;;;;20.38;10.13;;;29.60;60.20;;;26.56;66.28;100203.31;5046544;28;20051;-81
2021/06/18 09:52:26;;;;;;;16.80;9.18;;;29.60;59.50;;;26.55;67.30;100211.97;5020601;28;20053;-81
2021/06/18 09:57:55;;;;;;;15.43;8.85;;;29.50;59.90;;;26.53;66.09;100204.72;5022012;28;20045;-81
2021/06/18 10:00:32;;;;;;;16.25;10.02;;;29.50;59.60;;;26.53;66.24;100215.88;5019752;28;20584;-81
2021/06/18 10:03:12;;;;;;;16.02;9.35;;;29.50;59.90;;;26.53;65.64;100204.72;5020004;28;20088;-81
2021/06/18 10:05:50;;;;;;;15.73;9.52;;;29.50;59.70;;;26.51;65.27;100208.94;5026408;28;20045;-81
2021/06/18 10:08:29;;;;;;;21.52;9.48;;;29.40;59.30;;;26.48;65.10;100203.97;5017164;28;20042;-81
2021/06/18 10:11:07;;;;;;;12.35;8.30;;;29.40;59.00;;;26.48;66.76;100207.59;5012355;28;20045;-81
2021/06/18 10:13:44;;;;;;;17.17;9.00;;;29.40;60.70;;;26.51;66.40;100201.41;5018171;28;20414;-81
2021/06/18 10:16:22;;;;;;;21.65;10.93;;;29.40;60.10;;;26.55;65.73;100198.03;5011045;28;20523;-80
2021/06/18 10:18:59;;;;;;;21.98;9.02;;;29.40;59.60;;;26.61;66.57;100188.47;5029147;28;20130;-80
2021/06/18 10:21:50;;;;;;;17.55;9.07;;;29.40;60.00;;;26.59;64.24;100190.72;5029421;28;20048;-81
2021/06/18 10:24:36;;;;;;;12.68;7.95;;;29.40;58.70;;;26.56;63.77;100196.88;5019486;28;20044;-81
2021/06/18 10:27:18;;;;;;;18.02;8.25;;;29.40;58.20;;;26.57;64.12;100192.97;5016982;28;20041;-81
2021/06/18 10:32:46;;;;;;;15.55;10.52;;;29.40;57.10;;;26.59;64.33;100185.13;5014332;28;20350;-81
2021/06/18 10:35:52;;;;;;;22.42;8.85;;;29.40;58.60;;;26.60;64.85;100186.81;5016422;28;20081;-81
2021/06/18 10:38:41;;;;;;;16.20;6.90;;;29.50;59.20;;;26.61;62.24;100183.72;5014798;28;20045;-81
2021/06/18 10:41:37;;;;;;;12.50;7.20;;;29.50;56.80;;;26.62;62.43;100179.81;5010499;28;20065;-81
2021/06/18 10:44:13;;;;;;;17.58;7.00;;;29.50;57.20;;;26.66;60.64;100180.03;5024292;28;20045;-81
2021/06/18 10:46:51;;;;;;;13.70;5.72;;;29.40;56.00;;;26.64;60.57;100176.72;5030295;28;20053;-81
2021/06/18 10:52:29;;;;;;;16.55;5.78;;;29.50;55.40;;;26.63;60.52;100169.47;5011583;28;20050;-87
2021/06/18 10:55:09;;;;;;;11.90;6.03;;;29.40;55.60;;;26.65;60.74;100170.00;5028795;28;20056;-81
2021/06/18 11:00:46;;;;;;;;;;;29.40;56.10;;;26.66;61.12;100182.84;5018000;28;20053;-81
2021/06/18 11:06:07;;;;;;;14.60;6.50;;;29.50;56.90;;;26.74;64.56;100182.16;5013072;23;20576;-85
2021/06/18 11:09:03;;;;;;;13.85;7.78;;;29.60;58.70;;;26.84;62.01;100176.41;5046940;28;20033;-85
2021/06/18 11:11:41;;;;;;;17.17;7.70;;;29.70;57.20;;;26.84;62.51;100186.75;5029002;28;20045;-85
2021/06/18 11:14:20;;;;;;;17.63;7.13;;;29.80;56.70;;;26.84;61.44;100176.41;5043316;28;20049;-85
2021/06/18 11:16:58;;;;;;;13.95;7.35;;;29.80;56.00;;;26.84;61.47;100183.97;5048011;28;20040;-84
2021/06/18 11:19:51;;;;;;;18.27;8.00;;;29.90;56.00;;;26.95;64.21;100181.84;5036730;22;20080;-82
2021/06/18 11:23:09;;;;;;;12.50;6.53;;;29.90;57.60;;;27.08;60.59;100169.91;5013819;28;20045;-84
2021/06/18 11:26:03;;;;;;;14.90;5.90;;;30.00;56.50;;;27.17;59.70;100170.88;5023921;28;20053;-82
2021/06/18 11:29:02;;;;;;;14.73;6.25;;;30.00;55.80;;;27.21;61.61;100174.72;5014806;28;20038;-86
2021/06/18 11:31:52;;;;;;;11.70;5.45;;;30.00;57.60;;;27.18;55.69;100169.75;5010046;28;20108;-84
2021/06/18 11:34:31;;;;;;;16.58;5.15;;;30.00;52.20;;;27.18;55.41;100169.75;5010905;28;20057;-84
2021/06/18 11:37:10;;;;;;;11.02;4.40;;;29.90;51.30;;;27.17;53.13;100164.44;5028435;28;20037;-84
2021/06/18 11:40:09;;;;;;;12.88;5.15;;;29.90;49.10;;;27.19;53.91;100168.63;5028831;28;20099;-83
2021/06/18 11:42:47;;;;;;;16.90;4.85;;;29.80;51.10;;;27.30;53.84;100164.56;5028890;28;20083;-84
2021/06/18 11:45:30;;;;;;;13.32;4.93;;;29.90;50.90;;;27.29;51.96;100150.88;5019752;28;20052;-84
2021/06/18 11:48:06;;;;;;;11.23;4.75;;;29.90;48.80;;;27.28;51.11;100147.25;5002778;28;20045;-84
2021/06/18 11:50:53;;;;;;;16.30;5.40;;;29.80;48.30;;;27.25;53.39;100150.66;5011042;28;20053;-83
2021/06/18 11:53:44;;;;;;;17.48;5.50;;;29.80;49.70;;;27.26;52.06;100143.94;5013959;28;20579;-84
2021/06/18 11:56:24;;;;;;;20.48;8.07;;;29.70;49.10;;;27.25;53.58;100142.28;5018428;28;20064;-84
2021/06/18 11:59:00;;;;;;;9.52;4.50;;;29.80;50.40;;;27.30;51.03;100144.13;5022176;28;20099;-84
2021/06/18 12:01:40;;;;;;;9.90;4.38;;;29.80;48.60;;;27.25;50.75;100136.69;5028207;28;20386;-84
2021/06/18 12:04:27;;;;;;;11.15;6.78;;;29.80;47.20;;;27.20;53.20;100145.13;5008915;28;20060;-83
2021/06/18 12:07:03;;;;;;;12.23;4.47;;;29.70;49.60;;;27.16;51.61;100127.31;5009688;28;20038;-84
2021/06/18 12:09:53;;;;;;;12.82;4.03;;;29.70;48.40;;;27.22;51.92;100128.88;5019698;28;20054;-85
2021/06/18 12:12:33;;;;;;;6.73;3.87;;;29.80;48.80;;;27.30;51.62;100144.13;5019316;28;20041;-84
2021/06/18 12:15:19;;;;;;;7.07;3.97;;;29.80;48.70;;;27.26;50.58;100135.56;5018313;28;20440;-85
2021/06/18 12:17:58;;;;;;;9.80;3.92;;;29.80;48.30;;;27.29;50.73;100132.13;4998714;28;20042;-84